sensor_id;sensor_type;location;lat;lon;timestamp;pressure;altitude;pressure_sealevel;temperature;humidity
216;BME280;64590;48.81286795;9.14184224;2023-03-01T00:02:13;99030.72;;;0.03;66.49
216;BME280;64590;48.81286795;9.14184224;2023-03-01T00:04:39;99042.66;;;-0.07;66.49
216;BME280;64590;48.81286795;9.14184224;2023-03-01T00:07:06;99041.22;;;0.10;66.02
216;BME280;64590;48.81286795;9.14184224;2023-03-01T00:09:32;99038.66;;;0.27;65.83
216;BME280;64590;48.81286795;9.14184224;2023-03-01T00:11:59;99035.78;;;-0.04;66.88
216;BME280;64590;48.81286795;9.14184224;2023-03-01T00:14:25;99032.44;;;-0.01;66.56
216;BME280;64590;48.81286795;9.14184224;2023-03-01T00:16:52;99037.69;;;0.09;65.86
216;BME280;64590;48.81286795;9.14184224;2023-03-01T00:19:20;99037.56;;;0.14;65.64
216;BME280;64590;48.81286795;9.14184224;2023-03-01T00:21:48;99041.59;;;0.17;65.63
216;BME280;64590;48.81286795;9.14184224;2023-03-01T00:24:15;99043.81;;;0.15;66.52
216;BME280;64590;48.81286795;9.14184224;2023-03-01T00:26:42;99047.50;;;-0.04;66.41
216;BME280;64590;48.81286795;9.14184224;2023-03-01T00:29:08;99047.00;;;-0.06;67.27
216;BME280;64590;48.81286795;9.14184224;2023-03-01T00:31:35;99037.97;;;0.08;67.38
216;BME280;64590;48.81286795;9.14184224;2023-03-01T00:34:03;99035.59;;;-0.08;66.92
216;BME280;64590;48.81286795;9.14184224;2023-03-01T00:36:34;99041.66;;;-0.24;67.34
216;BME280;64590;48.81286795;9.14184224;2023-03-01T00:39:01;99035.19;;;-0.29;68.09
216;BME280;64590;48.81286795;9.14184224;2023-03-01T00:41:29;99042.88;;;-0.17;67.23
216;BME280;64590;48.81286795;9.14184224;2023-03-01T00:43:56;99039.97;;;-0.34;67.83
216;BME280;64590;48.81286795;9.14184224;2023-03-01T00:46:25;99037.03;;;-0.24;67.27
216;BME280;64590;48.81286795;9.14184224;2023-03-01T00:48:52;99025.81;;;-0.50;67.79
216;BME280;64590;48.81286795;9.14184224;2023-03-01T00:51:21;99032.88;;;-0.35;67.75
216;BME280;64590;48.81286795;9.14184224;2023-03-01T00:53:51;99040.66;;;-0.29;66.80
216;BME280;64590;48.81286795;9.14184224;2023-03-01T00:56:18;99041.25;;;-0.32;67.07
216;BME280;64590;48.81286795;9.14184224;2023-03-01T00:58:45;99046.28;;;0.03;66.90
216;BME280;64590;48.81286795;9.14184224;2023-03-01T01:01:14;99042.66;;;-0.20;67.11
216;BME280;64590;48.81286795;9.14184224;2023-03-01T01:03:44;99038.75;;;-0.42;67.78
216;BME280;64590;48.81286795;9.14184224;2023-03-01T01:06:16;99033.56;;;-0.30;67.37
216;BME280;64590;48.81286795;9.14184224;2023-03-01T01:08:43;99028.13;;;-0.16;66.75
216;BME280;64590;48.81286795;9.14184224;2023-03-01T01:11:12;99031.75;;;-0.07;66.43
216;BME280;64590;48.81286795;9.14184224;2023-03-01T01:13:40;99034.09;;;-0.41;68.31
216;BME280;64590;48.81286795;9.14184224;2023-03-01T01:16:07;99036.00;;;-0.28;67.33
216;BME280;64590;48.81286795;9.14184224;2023-03-01T01:18:34;99031.47;;;-0.33;67.16
216;BME280;64590;48.81286795;9.14184224;2023-03-01T01:21:04;99025.41;;;-0.16;67.42
216;BME280;64590;48.81286795;9.14184224;2023-03-01T01:23:30;99028.03;;;-0.24;67.20
216;BME280;64590;48.81286795;9.14184224;2023-03-01T01:25:57;99030.97;;;-0.48;67.70
216;BME280;64590;48.81286795;9.14184224;2023-03-01T01:28:25;99031.16;;;-0.31;67.23
216;BME280;64590;48.81286795;9.14184224;2023-03-01T01:30:51;99021.69;;;-0.34;67.44
216;BME280;64590;48.81286795;9.14184224;2023-03-01T01:33:18;99013.38;;;-0.56;67.66
216;BME280;64590;48.81286795;9.14184224;2023-03-01T01:35:45;99012.06;;;-0.45;67.83
216;BME280;64590;48.81286795;9.14184224;2023-03-01T01:38:11;99007.94;;;-0.42;67.59
216;BME280;64590;48.81286795;9.14184224;2023-03-01T01:40:43;99002.47;;;-0.56;68.24
216;BME280;64590;48.81286795;9.14184224;2023-03-01T01:43:17;98999.34;;;-0.77;69.08
216;BME280;64590;48.81286795;9.14184224;2023-03-01T01:45:47;99003.47;;;-0.79;69.57
216;BME280;64590;48.81286795;9.14184224;2023-03-01T01:48:16;99002.78;;;-0.58;68.80
216;BME280;64590;48.81286795;9.14184224;2023-03-01T01:50:44;99006.31;;;-0.71;69.16
216;BME280;64590;48.81286795;9.14184224;2023-03-01T01:53:15;98999.75;;;-0.83;68.98
216;BME280;64590;48.81286795;9.14184224;2023-03-01T01:55:46;98998.94;;;-0.84;69.33
216;BME280;64590;48.81286795;9.14184224;2023-03-01T01:58:16;98993.19;;;-0.69;68.50
216;BME280;64590;48.81286795;9.14184224;2023-03-01T02:00:44;98999.25;;;-0.72;68.77
216;BME280;64590;48.81286795;9.14184224;2023-03-01T02:03:13;98993.91;;;-0.77;69.05
216;BME280;64590;48.81286795;9.14184224;2023-03-01T02:05:47;98999.34;;;-0.77;69.25
216;BME280;64590;48.81286795;9.14184224;2023-03-01T02:08:18;98986.00;;;-0.78;69.57
216;BME280;64590;48.81286795;9.14184224;2023-03-01T02:10:46;98988.00;;;-0.98;70.24
216;BME280;64590;48.81286795;9.14184224;2023-03-01T02:13:14;98972.38;;;-0.92;69.71
216;BME280;64590;48.81286795;9.14184224;2023-03-01T02:15:41;98976.53;;;-0.95;70.18
216;BME280;64590;48.81286795;9.14184224;2023-03-01T02:18:10;98970.16;;;-0.90;70.23
216;BME280;64590;48.81286795;9.14184224;2023-03-01T02:20:46;98972.91;;;-1.04;70.51
216;BME280;64590;48.81286795;9.14184224;2023-03-01T02:23:16;98962.69;;;-1.12;71.35
216;BME280;64590;48.81286795;9.14184224;2023-03-01T02:25:48;98960.56;;;-1.01;71.22
216;BME280;64590;48.81286795;9.14184224;2023-03-01T02:28:26;98955.63;;;-0.99;70.88
216;BME280;64590;48.81286795;9.14184224;2023-03-01T02:30:53;98957.84;;;-0.74;70.24
216;BME280;64590;48.81286795;9.14184224;2023-03-01T02:33:39;98947.66;;;-0.68;70.26
216;BME280;64590;48.81286795;9.14184224;2023-03-01T02:36:09;98945.97;;;-0.78;69.85
216;BME280;64590;48.81286795;9.14184224;2023-03-01T02:38:38;98945.41;;;-0.52;69.89
216;BME280;64590;48.81286795;9.14184224;2023-03-01T02:41:06;98947.44;;;-0.44;69.55
216;BME280;64590;48.81286795;9.14184224;2023-03-01T02:43:35;98935.78;;;-0.36;69.22
216;BME280;64590;48.81286795;9.14184224;2023-03-01T02:46:05;98933.69;;;-0.39;69.66
216;BME280;64590;48.81286795;9.14184224;2023-03-01T02:48:40;98935.38;;;-0.30;69.49
216;BME280;64590;48.81286795;9.14184224;2023-03-01T02:51:14;98935.97;;;-0.19;68.61
216;BME280;64590;48.81286795;9.14184224;2023-03-01T02:53:49;98935.97;;;-0.19;68.43
216;BME280;64590;48.81286795;9.14184224;2023-03-01T02:56:19;98939.16;;;-0.03;68.25
216;BME280;64590;48.81286795;9.14184224;2023-03-01T02:58:47;98935.00;;;-0.01;68.58
216;BME280;64590;48.81286795;9.14184224;2023-03-01T03:01:17;98923.34;;;0.08;68.43
216;BME280;64590;48.81286795;9.14184224;2023-03-01T03:03:44;98916.59;;;0.05;67.66
216;BME280;64590;48.81286795;9.14184224;2023-03-01T03:06:11;98922.84;;;0.06;67.97
216;BME280;64590;48.81286795;9.14184224;2023-03-01T03:08:38;98917.38;;;-0.17;69.07
216;BME280;64590;48.81286795;9.14184224;2023-03-01T03:11:05;98915.47;;;-0.16;69.01
216;BME280;64590;48.81286795;9.14184224;2023-03-01T03:13:31;98912.00;;;0.14;67.40
216;BME280;64590;48.81286795;9.14184224;2023-03-01T03:16:02;98907.19;;;0.11;67.37
216;BME280;64590;48.81286795;9.14184224;2023-03-01T03:18:30;98918.94;;;-0.02;68.15
216;BME280;64590;48.81286795;9.14184224;2023-03-01T03:20:56;98909.38;;;-0.13;69.47
216;BME280;64590;48.81286795;9.14184224;2023-03-01T03:23:23;98903.44;;;-0.15;69.32
216;BME280;64590;48.81286795;9.14184224;2023-03-01T03:25:50;98905.22;;;-0.11;69.61
216;BME280;64590;48.81286795;9.14184224;2023-03-01T03:28:17;98910.44;;;-0.01;69.02
216;BME280;64590;48.81286795;9.14184224;2023-03-01T03:30:44;98899.66;;;-0.06;68.73
216;BME280;64590;48.81286795;9.14184224;2023-03-01T03:33:13;98905.06;;;0.31;67.31
216;BME280;64590;48.81286795;9.14184224;2023-03-01T03:35:42;98895.38;;;0.24;67.48
216;BME280;64590;48.81286795;9.14184224;2023-03-01T03:38:10;98901.56;;;0.16;67.66
216;BME280;64590;48.81286795;9.14184224;2023-03-01T03:40:43;98897.63;;;0.22;67.55
216;BME280;64590;48.81286795;9.14184224;2023-03-01T03:43:11;98898.91;;;0.25;67.78
216;BME280;64590;48.81286795;9.14184224;2023-03-01T03:45:38;98907.59;;;0.05;68.58
216;BME280;64590;48.81286795;9.14184224;2023-03-01T03:48:08;98906.06;;;0.12;67.91
216;BME280;64590;48.81286795;9.14184224;2023-03-01T03:50:37;98898.50;;;0.09;68.64
216;BME280;64590;48.81286795;9.14184224;2023-03-01T03:53:06;98899.22;;;0.01;69.05
216;BME280;64590;48.81286795;9.14184224;2023-03-01T03:55:34;98888.72;;;0.17;67.98
216;BME280;64590;48.81286795;9.14184224;2023-03-01T03:58:06;98883.28;;;0.17;68.16
216;BME280;64590;48.81286795;9.14184224;2023-03-01T04:00:34;98887.25;;;0.33;67.87
216;BME280;64590;48.81286795;9.14184224;2023-03-01T04:03:01;98889.75;;;0.21;68.58
216;BME280;64590;48.81286795;9.14184224;2023-03-01T04:05:28;98887.69;;;0.26;68.31
216;BME280;64590;48.81286795;9.14184224;2023-03-01T04:07:56;98878.19;;;0.24;68.55
216;BME280;64590;48.81286795;9.14184224;2023-03-01T04:10:35;98876.38;;;0.42;67.95
216;BME280;64590;48.81286795;9.14184224;2023-03-01T04:13:02;98869.28;;;0.41;67.33
216;BME280;64590;48.81286795;9.14184224;2023-03-01T04:15:30;98875.78;;;0.22;68.82
216;BME280;64590;48.81286795;9.14184224;2023-03-01T04:17:58;98871.59;;;0.25;68.09
216;BME280;64590;48.81286795;9.14184224;2023-03-01T04:20:26;98866.34;;;0.28;67.55
216;BME280;64590;48.81286795;9.14184224;2023-03-01T04:22:58;98879.78;;;0.25;68.11
216;BME280;64590;48.81286795;9.14184224;2023-03-01T04:25:26;98869.28;;;0.41;67.52
216;BME280;64590;48.81286795;9.14184224;2023-03-01T04:27:52;98868.75;;;0.30;68.40
216;BME280;64590;48.81286795;9.14184224;2023-03-01T04:30:19;98865.66;;;0.45;68.29
216;BME280;64590;48.81286795;9.14184224;2023-03-01T04:32:45;98866.22;;;0.65;68.16
216;BME280;64590;48.81286795;9.14184224;2023-03-01T04:35:12;98868.50;;;0.71;67.81
216;BME280;64590;48.81286795;9.14184224;2023-03-01T04:37:38;98869.78;;;0.74;67.71
216;BME280;64590;48.81286795;9.14184224;2023-03-01T04:40:09;98867.16;;;0.60;68.19
216;BME280;64590;48.81286795;9.14184224;2023-03-01T04:42:41;98871.13;;;0.85;67.88
216;BME280;64590;48.81286795;9.14184224;2023-03-01T04:45:09;98866.38;;;0.68;68.05
216;BME280;64590;48.81286795;9.14184224;2023-03-01T04:47:39;98871.31;;;0.89;67.54
216;BME280;64590;48.81286795;9.14184224;2023-03-01T04:50:07;98868.69;;;0.83;67.91
216;BME280;64590;48.81286795;9.14184224;2023-03-01T04:52:34;98869.22;;;0.94;67.78
216;BME280;64590;48.81286795;9.14184224;2023-03-01T04:55:01;98870.69;;;1.00;67.60
216;BME280;64590;48.81286795;9.14184224;2023-03-01T04:57:30;98865.56;;;0.99;67.25
216;BME280;64590;48.81286795;9.14184224;2023-03-01T04:59:57;98862.94;;;0.94;68.00
216;BME280;64590;48.81286795;9.14184224;2023-03-01T05:02:24;98864.44;;;1.08;67.16
216;BME280;64590;48.81286795;9.14184224;2023-03-01T05:04:50;98864.09;;;1.01;67.75
216;BME280;64590;48.81286795;9.14184224;2023-03-01T05:07:17;98869.91;;;1.08;67.66
216;BME280;64590;48.81286795;9.14184224;2023-03-01T05:09:45;98867.38;;;1.29;67.78
216;BME280;64590;48.81286795;9.14184224;2023-03-01T05:12:11;98868.16;;;1.21;65.93
216;BME280;64590;48.81286795;9.14184224;2023-03-01T05:14:39;98862.72;;;1.30;66.07
216;BME280;64590;48.81286795;9.14184224;2023-03-01T05:17:06;98866.09;;;1.18;66.14
216;BME280;64590;48.81286795;9.14184224;2023-03-01T05:19:34;98863.19;;;1.15;66.25
216;BME280;64590;48.81286795;9.14184224;2023-03-01T05:22:01;98865.28;;;1.18;65.72
216;BME280;64590;48.81286795;9.14184224;2023-03-01T05:24:32;98863.56;;;1.48;64.92
216;BME280;64590;48.81286795;9.14184224;2023-03-01T05:27:00;98854.88;;;1.46;64.71
216;BME280;64590;48.81286795;9.14184224;2023-03-01T05:29:28;98860.53;;;1.49;64.63
216;BME280;64590;48.81286795;9.14184224;2023-03-01T05:31:57;98853.56;;;1.34;64.44
216;BME280;64590;48.81286795;9.14184224;2023-03-01T05:34:25;98851.84;;;1.64;63.57
216;BME280;64590;48.81286795;9.14184224;2023-03-01T05:36:52;98851.31;;;1.36;64.16
216;BME280;64590;48.81286795;9.14184224;2023-03-01T05:39:20;98858.41;;;1.37;64.92
216;BME280;64590;48.81286795;9.14184224;2023-03-01T05:41:48;98862.75;;;1.47;65.21
216;BME280;64590;48.81286795;9.14184224;2023-03-01T05:44:14;98871.47;;;1.49;65.31
216;BME280;64590;48.81286795;9.14184224;2023-03-01T05:46:41;98865.69;;;1.68;64.71
216;BME280;64590;48.81286795;9.14184224;2023-03-01T05:49:09;98857.44;;;1.33;65.21
216;BME280;64590;48.81286795;9.14184224;2023-03-01T05:51:35;98852.59;;;1.39;65.42
216;BME280;64590;48.81286795;9.14184224;2023-03-01T05:54:02;98860.66;;;1.44;65.30
216;BME280;64590;48.81286795;9.14184224;2023-03-01T05:56:32;98858.28;;;1.51;64.81
216;BME280;64590;48.81286795;9.14184224;2023-03-01T05:58:59;98857.28;;;1.47;64.46
216;BME280;64590;48.81286795;9.14184224;2023-03-01T06:01:25;98849.69;;;1.27;65.71
216;BME280;64590;48.81286795;9.14184224;2023-03-01T06:03:52;98851.50;;;1.40;66.35
216;BME280;64590;48.81286795;9.14184224;2023-03-01T06:06:19;98841.50;;;1.27;66.14
216;BME280;64590;48.81286795;9.14184224;2023-03-01T06:08:46;98847.97;;;1.39;65.81
216;BME280;64590;48.81286795;9.14184224;2023-03-01T06:11:13;98846.53;;;1.42;65.38
216;BME280;64590;48.81286795;9.14184224;2023-03-01T06:13:41;98849.88;;;1.48;65.82
216;BME280;64590;48.81286795;9.14184224;2023-03-01T06:16:08;98845.38;;;1.43;65.81
216;BME280;64590;48.81286795;9.14184224;2023-03-01T06:18:35;98851.63;;;1.26;66.22
216;BME280;64590;48.81286795;9.14184224;2023-03-01T06:21:02;98848.44;;;1.33;65.69
216;BME280;64590;48.81286795;9.14184224;2023-03-01T06:23:30;98848.75;;;1.31;65.82
216;BME280;64590;48.81286795;9.14184224;2023-03-01T06:25:57;98852.94;;;1.37;66.43
216;BME280;64590;48.81286795;9.14184224;2023-03-01T06:28:24;98849.88;;;1.39;66.28
216;BME280;64590;48.81286795;9.14184224;2023-03-01T06:30:50;98850.47;;;1.10;66.66
216;BME280;64590;48.81286795;9.14184224;2023-03-01T06:33:18;98837.44;;;1.07;67.11
216;BME280;64590;48.81286795;9.14184224;2023-03-01T06:35:45;98836.19;;;1.13;67.39
216;BME280;64590;48.81286795;9.14184224;2023-03-01T06:38:12;98835.53;;;1.16;67.03
216;BME280;64590;48.81286795;9.14184224;2023-03-01T06:40:41;98840.69;;;1.18;66.91
216;BME280;64590;48.81286795;9.14184224;2023-03-01T06:43:08;98837.22;;;0.95;67.72
216;BME280;64590;48.81286795;9.14184224;2023-03-01T06:45:34;98847.13;;;1.13;67.48
216;BME280;64590;48.81286795;9.14184224;2023-03-01T06:48:02;98850.66;;;1.22;66.68
216;BME280;64590;48.81286795;9.14184224;2023-03-01T06:50:29;98857.22;;;1.12;67.09
216;BME280;64590;48.81286795;9.14184224;2023-03-01T06:52:56;98855.50;;;0.77;68.49
216;BME280;64590;48.81286795;9.14184224;2023-03-01T06:55:22;98858.81;;;1.05;67.74
216;BME280;64590;48.81286795;9.14184224;2023-03-01T06:57:54;98858.72;;;1.27;67.08
216;BME280;64590;48.81286795;9.14184224;2023-03-01T07:00:22;98857.47;;;1.42;66.41
216;BME280;64590;48.81286795;9.14184224;2023-03-01T07:02:49;98854.53;;;1.38;67.19
216;BME280;64590;48.81286795;9.14184224;2023-03-01T07:05:15;98846.53;;;1.42;66.25
216;BME280;64590;48.81286795;9.14184224;2023-03-01T07:07:42;98852.28;;;1.32;66.41
216;BME280;64590;48.81286795;9.14184224;2023-03-01T07:10:10;98845.22;;;1.31;66.67
216;BME280;64590;48.81286795;9.14184224;2023-03-01T07:12:36;98851.03;;;1.55;66.54
216;BME280;64590;48.81286795;9.14184224;2023-03-01T07:15:06;98849.41;;;1.54;65.79
216;BME280;64590;48.81286795;9.14184224;2023-03-01T07:17:34;98844.94;;;1.58;64.00
216;BME280;64590;48.81286795;9.14184224;2023-03-01T07:20:01;98843.94;;;1.54;64.00
216;BME280;64590;48.81286795;9.14184224;2023-03-01T07:22:27;98832.84;;;1.51;64.71
216;BME280;64590;48.81286795;9.14184224;2023-03-01T07:24:54;98831.72;;;1.43;64.17
216;BME280;64590;48.81286795;9.14184224;2023-03-01T07:27:20;98842.34;;;1.62;63.92
216;BME280;64590;48.81286795;9.14184224;2023-03-01T07:29:47;98840.59;;;1.57;63.79
216;BME280;64590;48.81286795;9.14184224;2023-03-01T07:32:15;98830.41;;;1.32;64.93
216;BME280;64590;48.81286795;9.14184224;2023-03-01T07:34:41;98835.09;;;1.49;64.25
216;BME280;64590;48.81286795;9.14184224;2023-03-01T07:37:08;98826.56;;;1.50;64.45
216;BME280;64590;48.81286795;9.14184224;2023-03-01T07:39:34;98823.03;;;1.41;64.65
216;BME280;64590;48.81286795;9.14184224;2023-03-01T07:42:01;98820.09;;;1.29;65.12
216;BME280;64590;48.81286795;9.14184224;2023-03-01T07:44:27;98821.88;;;1.25;65.57
216;BME280;64590;48.81286795;9.14184224;2023-03-01T07:46:54;98825.13;;;1.44;64.15
216;BME280;64590;48.81286795;9.14184224;2023-03-01T07:49:24;98821.91;;;1.51;64.04
216;BME280;64590;48.81286795;9.14184224;2023-03-01T07:51:52;98818.84;;;1.35;64.56
216;BME280;64590;48.81286795;9.14184224;2023-03-01T07:54:19;98815.44;;;1.47;64.61
216;BME280;64590;48.81286795;9.14184224;2023-03-01T07:56:45;98818.97;;;1.38;64.82
216;BME280;64590;48.81286795;9.14184224;2023-03-01T07:59:12;98814.97;;;1.53;64.09
216;BME280;64590;48.81286795;9.14184224;2023-03-01T08:01:39;98813.72;;;1.59;63.83
216;BME280;64590;48.81286795;9.14184224;2023-03-01T08:04:07;98803.22;;;1.53;63.97
216;BME280;64590;48.81286795;9.14184224;2023-03-01T08:06:35;98808.38;;;1.54;64.80
216;BME280;64590;48.81286795;9.14184224;2023-03-01T08:09:02;98803.56;;;1.51;63.30
216;BME280;64590;48.81286795;9.14184224;2023-03-01T08:11:29;98813.03;;;1.54;63.57
216;BME280;64590;48.81286795;9.14184224;2023-03-01T08:13:55;98811.28;;;1.40;64.22
216;BME280;64590;48.81286795;9.14184224;2023-03-01T08:16:23;98812.72;;;1.55;64.01
216;BME280;64590;48.81286795;9.14184224;2023-03-01T08:18:49;98808.38;;;1.46;63.44
216;BME280;64590;48.81286795;9.14184224;2023-03-01T08:21:17;98800.50;;;1.44;64.22
216;BME280;64590;48.81286795;9.14184224;2023-03-01T08:23:45;98796.00;;;1.48;65.09
216;BME280;64590;48.81286795;9.14184224;2023-03-01T08:26:14;98801.63;;;1.78;63.20
216;BME280;64590;48.81286795;9.14184224;2023-03-01T08:28:41;98802.91;;;1.80;64.49
216;BME280;64590;48.81286795;9.14184224;2023-03-01T08:31:15;98799.19;;;2.02;62.64
216;BME280;64590;48.81286795;9.14184224;2023-03-01T08:33:42;98799.00;;;1.98;63.12
216;BME280;64590;48.81286795;9.14184224;2023-03-01T08:36:09;98796.47;;;1.85;63.27
216;BME280;64590;48.81286795;9.14184224;2023-03-01T08:38:35;98791.63;;;1.82;63.26
216;BME280;64590;48.81286795;9.14184224;2023-03-01T08:41:03;98790.34;;;1.88;62.68
216;BME280;64590;48.81286795;9.14184224;2023-03-01T08:43:30;98790.00;;;1.98;62.69
216;BME280;64590;48.81286795;9.14184224;2023-03-01T08:45:57;98795.31;;;2.03;61.95
216;BME280;64590;48.81286795;9.14184224;2023-03-01T08:48:23;98794.25;;;2.34;61.75
216;BME280;64590;48.81286795;9.14184224;2023-03-01T08:50:50;98789.59;;;2.25;61.05
216;BME280;64590;48.81286795;9.14184224;2023-03-01T08:53:17;98791.19;;;2.44;61.64
216;BME280;64590;48.81286795;9.14184224;2023-03-01T08:55:44;98782.50;;;2.33;61.10
216;BME280;64590;48.81286795;9.14184224;2023-03-01T08:58:12;98780.56;;;2.34;61.42
216;BME280;64590;48.81286795;9.14184224;2023-03-01T09:00:38;98779.44;;;2.43;61.33
216;BME280;64590;48.81286795;9.14184224;2023-03-01T09:03:05;98781.06;;;2.36;61.34
216;BME280;64590;48.81286795;9.14184224;2023-03-01T09:05:32;98776.13;;;2.59;60.94
216;BME280;64590;48.81286795;9.14184224;2023-03-01T09:07:59;98769.22;;;2.52;60.59
216;BME280;64590;48.81286795;9.14184224;2023-03-01T09:10:26;98766.00;;;2.50;60.84
216;BME280;64590;48.81286795;9.14184224;2023-03-01T09:12:52;98773.81;;;2.69;60.45
216;BME280;64590;48.81286795;9.14184224;2023-03-01T09:15:20;98769.41;;;2.47;60.31
216;BME280;64590;48.81286795;9.14184224;2023-03-01T09:17:47;98773.75;;;2.48;60.87
216;BME280;64590;48.81286795;9.14184224;2023-03-01T09:20:13;98762.13;;;2.51;60.29
216;BME280;64590;48.81286795;9.14184224;2023-03-01T09:22:40;98749.78;;;2.37;61.00
216;BME280;64590;48.81286795;9.14184224;2023-03-01T09:25:06;98748.69;;;2.29;60.93
216;BME280;64590;48.81286795;9.14184224;2023-03-01T09:27:33;98745.25;;;2.41;60.68
216;BME280;64590;48.81286795;9.14184224;2023-03-01T09:30:00;98741.38;;;2.42;61.26
216;BME280;64590;48.81286795;9.14184224;2023-03-01T09:32:29;98744.03;;;2.59;59.76
216;BME280;64590;48.81286795;9.14184224;2023-03-01T09:34:56;98745.84;;;2.55;60.71
216;BME280;64590;48.81286795;9.14184224;2023-03-01T09:37:32;98746.16;;;2.83;59.60
216;BME280;64590;48.81286795;9.14184224;2023-03-01T09:39:59;98737.03;;;2.79;59.95
216;BME280;64590;48.81286795;9.14184224;2023-03-01T09:42:27;98743.41;;;2.62;60.97
216;BME280;64590;48.81286795;9.14184224;2023-03-01T09:45:00;98731.72;;;2.74;60.36
216;BME280;64590;48.81286795;9.14184224;2023-03-01T09:47:31;98738.34;;;2.94;60.26
216;BME280;64590;48.81286795;9.14184224;2023-03-01T09:50:04;98738.03;;;2.95;59.49
216;BME280;64590;48.81286795;9.14184224;2023-03-01T09:52:38;98738.75;;;3.13;59.77
216;BME280;64590;48.81286795;9.14184224;2023-03-01T09:55:10;98735.91;;;3.01;58.99
216;BME280;64590;48.81286795;9.14184224;2023-03-01T09:57:41;98735.38;;;3.07;59.28
216;BME280;64590;48.81286795;9.14184224;2023-03-01T10:00:32;98729.69;;;3.12;59.41
216;BME280;64590;48.81286795;9.14184224;2023-03-01T10:03:12;98720.50;;;3.29;58.65
216;BME280;64590;48.81286795;9.14184224;2023-03-01T10:05:50;98717.31;;;3.27;58.68
216;BME280;64590;48.81286795;9.14184224;2023-03-01T10:08:38;98712.44;;;3.33;58.08
216;BME280;64590;48.81286795;9.14184224;2023-03-01T10:11:17;98715.84;;;3.30;58.54
216;BME280;64590;48.81286795;9.14184224;2023-03-01T10:13:47;98705.00;;;3.33;58.32
216;BME280;64590;48.81286795;9.14184224;2023-03-01T10:16:21;98698.34;;;3.55;58.66
216;BME280;64590;48.81286795;9.14184224;2023-03-01T10:18:53;98698.13;;;3.60;57.91
216;BME280;64590;48.81286795;9.14184224;2023-03-01T10:21:22;98700.34;;;3.67;57.56
216;BME280;64590;48.81286795;9.14184224;2023-03-01T10:23:50;98688.34;;;3.72;57.21
216;BME280;64590;48.81286795;9.14184224;2023-03-01T10:26:30;98694.59;;;3.60;58.10
216;BME280;64590;48.81286795;9.14184224;2023-03-01T10:29:02;98683.56;;;3.81;57.22
216;BME280;64590;48.81286795;9.14184224;2023-03-01T10:31:37;98687.78;;;3.78;59.21
216;BME280;64590;48.81286795;9.14184224;2023-03-01T10:34:10;98679.56;;;3.78;56.97
216;BME280;64590;48.81286795;9.14184224;2023-03-01T10:36:38;98678.22;;;3.96;56.93
216;BME280;64590;48.81286795;9.14184224;2023-03-01T10:39:12;98671.63;;;4.10;56.23
216;BME280;64590;48.81286795;9.14184224;2023-03-01T10:41:51;98668.97;;;4.13;55.58
216;BME280;64590;48.81286795;9.14184224;2023-03-01T10:44:36;98661.75;;;4.21;55.92
216;BME280;64590;48.81286795;9.14184224;2023-03-01T10:47:03;98665.91;;;4.27;55.86
216;BME280;64590;48.81286795;9.14184224;2023-03-01T10:49:31;98659.81;;;4.46;55.81
216;BME280;64590;48.81286795;9.14184224;2023-03-01T10:52:18;98662.69;;;4.62;54.59
216;BME280;64590;48.81286795;9.14184224;2023-03-01T10:54:52;98659.47;;;4.60;54.61
216;BME280;64590;48.81286795;9.14184224;2023-03-01T10:57:32;98662.88;;;4.81;54.03
216;BME280;64590;48.81286795;9.14184224;2023-03-01T11:00:15;98653.75;;;4.52;54.95
216;BME280;64590;48.81286795;9.14184224;2023-03-01T11:02:47;98659.88;;;4.86;54.20
216;BME280;64590;48.81286795;9.14184224;2023-03-01T11:05:20;98647.19;;;4.81;53.84
216;BME280;64590;48.81286795;9.14184224;2023-03-01T11:07:50;98637.75;;;4.95;53.70
216;BME280;64590;48.81286795;9.14184224;2023-03-01T11:10:20;98646.03;;;5.23;53.06
216;BME280;64590;48.81286795;9.14184224;2023-03-01T11:12:47;98640.22;;;5.12;52.94
216;BME280;64590;48.81286795;9.14184224;2023-03-01T11:15:23;98638.50;;;5.07;52.66
216;BME280;64590;48.81286795;9.14184224;2023-03-01T11:17:50;98629.31;;;5.16;52.83
216;BME280;64590;48.81286795;9.14184224;2023-03-01T11:20:24;98624.75;;;5.07;52.50
216;BME280;64590;48.81286795;9.14184224;2023-03-01T11:22:53;98629.97;;;5.25;52.58
216;BME280;64590;48.81286795;9.14184224;2023-03-01T11:25:24;98616.00;;;5.18;52.21
216;BME280;64590;48.81286795;9.14184224;2023-03-01T11:27:51;98623.16;;;5.34;53.86
216;BME280;64590;48.81286795;9.14184224;2023-03-01T11:30:22;98602.28;;;5.33;51.98
216;BME280;64590;48.81286795;9.14184224;2023-03-01T11:32:57;98615.16;;;5.29;52.32
216;BME280;64590;48.81286795;9.14184224;2023-03-01T11:35:29;98603.09;;;5.34;51.96
216;BME280;64590;48.81286795;9.14184224;2023-03-01T11:38:09;98592.56;;;5.52;51.85
216;BME280;64590;48.81286795;9.14184224;2023-03-01T11:40:41;98584.41;;;5.71;51.61
216;BME280;64590;48.81286795;9.14184224;2023-03-01T11:43:16;98585.34;;;5.91;50.98
216;BME280;64590;48.81286795;9.14184224;2023-03-01T11:45:54;98585.44;;;5.94;50.89
216;BME280;64590;48.81286795;9.14184224;2023-03-01T11:48:36;98579.72;;;6.19;50.49
216;BME280;64590;48.81286795;9.14184224;2023-03-01T11:51:09;98571.91;;;6.21;49.70
216;BME280;64590;48.81286795;9.14184224;2023-03-01T11:53:57;98574.59;;;6.53;51.27
216;BME280;64590;48.81286795;9.14184224;2023-03-01T11:56:31;98562.59;;;6.45;48.97
216;BME280;64590;48.81286795;9.14184224;2023-03-01T11:59:18;98564.88;;;6.59;49.87
216;BME280;64590;48.81286795;9.14184224;2023-03-01T12:02:02;98558.47;;;6.55;49.50